Time;durP1;ratioP1;P1;durP2;ratioP2;P2;SDS_P1;SDS_P2;PMS_P1;PMS_P2;Temp;Humidity;BMP_temperature;BMP_pressure;BME280_temperature;BME280_humidity;BME280_pressure;Samples;Min_cycle;Max_cycle;Signal;HPM_P1;HPM_P2
2023/04/12 00:02:17;;;;;;;27.43;10.40;;;9.30;99.90;;;;;;5088242;28;20897;-61
2023/04/12 00:04:43;;;;;;;9.37;5.23;;;9.30;99.90;;;;;;5068447;28;21250;-61
2023/04/12 00:07:11;;;;;;;16.37;6.43;;;9.20;99.90;;;;;;5073025;28;20516;-61
2023/04/12 00:09:38;;;;;;;11.53;6.07;;;9.40;99.90;;;;;;5081492;28;20509;-61
2023/04/12 00:12:07;;;;;;;20.40;9.33;;;9.30;99.90;;;;;;5078184;28;20477;-61
2023/04/12 00:14:33;;;;;;;14.40;5.47;;;9.30;99.90;;;;;;5085061;28;20492;-62
2023/04/12 00:17:00;;;;;;;26.87;11.77;;;9.30;99.90;;;;;;5083793;28;20478;-61
2023/04/12 00:19:29;;;;;;;37.50;14.60;;;9.30;99.90;;;;;;5074431;28;21983;-61
2023/04/12 00:21:56;;;;;;;20.93;8.97;;;9.30;99.90;;;;;;5066642;28;20474;-62
2023/04/12 00:24:23;;;;;;;20.63;7.20;;;9.30;99.90;;;;;;5055275;28;20892;-61
2023/04/12 00:26:50;;;;;;;39.63;13.97;;;9.30;99.90;;;;;;5046808;28;20474;-61
2023/04/12 00:29:18;;;;;;;14.90;6.67;;;9.20;99.90;;;;;;5077409;28;21022;-61
2023/04/12 00:31:44;;;;;;;17.87;6.90;;;9.20;99.90;;;;;;5084112;28;20478;-61
2023/04/12 00:34:11;;;;;;;17.37;6.70;;;9.20;99.90;;;;;;5074851;28;20474;-61
2023/04/12 00:36:38;;;;;;;23.73;6.77;;;9.20;99.90;;;;;;5084913;28;20476;-62
2023/04/12 00:39:05;;;;;;;20.23;8.90;;;9.30;99.90;;;;;;5084205;28;20806;-61
2023/04/12 00:41:31;;;;;;;18.30;7.60;;;9.30;99.90;;;;;;5073257;28;20489;-61
2023/04/12 00:43:58;;;;;;;18.03;6.77;;;9.30;99.90;;;;;;5044736;28;20550;-61
2023/04/12 00:46:28;;;;;;;18.40;7.70;;;9.30;99.90;;;;;;5069780;28;20482;-61
2023/04/12 00:48:55;;;;;;;36.40;13.60;;;9.40;99.90;;;;;;5071683;28;20505;-61
2023/04/12 00:51:24;;;;;;;17.57;6.57;;;9.40;99.90;;;;;;5086822;28;20478;-61
2023/04/12 00:53:52;;;;;;;26.13;10.37;;;9.40;99.90;;;;;;5075710;28;20506;-62
2023/04/12 00:56:22;;;;;;;21.77;9.00;;;9.40;99.90;;;;;;5071148;28;20548;-62
2023/04/12 00:58:49;;;;;;;17.53;7.77;;;12.70;99.90;;;;;;5061684;28;20735;-61
2023/04/12 01:01:18;;;;;;;15.50;5.93;;;9.60;99.90;;;;;;5035660;28;21002;-61
2023/04/12 01:03:46;;;;;;;19.27;7.07;;;8.50;99.90;;;;;;5045386;28;21156;-62
2023/04/12 01:06:16;;;;;;;22.17;8.40;;;9.70;99.90;;;;;;5052264;28;20503;-62
2023/04/12 01:09:10;;;;;;;18.90;5.97;;;9.70;99.90;;;;;;5032327;28;20498;-61
2023/04/12 01:11:42;;;;;;;19.30;7.07;;;9.60;99.90;;;;;;5046451;28;20844;-61
2023/04/12 01:14:15;;;;;;;17.67;6.47;;;9.50;99.90;;;;;;5058216;28;20565;-61
2023/04/12 01:16:46;;;;;;;13.73;6.20;;;9.30;99.90;;;;;;5061208;28;20495;-61
2023/04/12 01:19:28;;;;;;;24.60;9.23;;;9.30;99.90;;;;;;5068217;28;20478;-61
2023/04/12 01:22:07;;;;;;;32.77;11.33;;;9.20;99.90;;;;;;5061769;28;20532;-61
2023/04/12 01:24:40;;;;;;;17.37;6.57;;;9.30;99.90;;;;;;5038677;28;20529;-62
2023/04/12 01:27:15;;;;;;;15.73;5.93;;;9.20;99.90;;;;;;5055764;28;20930;-62
2023/04/12 01:29:48;;;;;;;24.13;9.33;;;9.10;99.90;;;;;;5072022;28;20574;-61
2023/04/12 01:32:15;;;;;;;17.53;6.57;;;9.10;99.90;;;;;;5072489;28;20594;-62
2023/04/12 01:34:44;;;;;;;18.17;6.50;;;9.10;99.90;;;;;;5071886;28;20838;-61
2023/04/12 01:37:12;;;;;;;13.40;6.10;;;9.10;99.90;;;;;;5059482;28;20484;-61
2023/04/12 01:39:39;;;;;;;16.23;6.53;;;9.00;99.90;;;;;;5043583;28;20486;-61
2023/04/12 01:42:06;;;;;;;17.43;7.80;;;8.90;99.90;;;;;;5040552;28;20486;-61
2023/04/12 01:44:33;;;;;;;21.63;8.83;;;8.90;99.90;;;;;;5062848;28;20870;-61
2023/04/12 01:47:01;;;;;;;17.53;7.50;;;9.00;99.90;;;;;;5065966;28;20482;-61
2023/04/12 01:49:35;;;;;;;20.50;8.27;;;9.00;99.90;;;;;;5070681;28;20739;-61
2023/04/12 01:52:08;;;;;;;34.97;11.83;;;9.00;99.90;;;;;;5060400;28;20475;-61
2023/04/12 01:54:41;;;;;;;18.20;7.40;;;9.00;99.90;;;;;;5055549;28;21022;-62
2023/04/12 01:57:09;;;;;;;11.83;5.57;;;9.00;99.90;;;;;;5050546;28;20959;-61
2023/04/12 01:59:39;;;;;;;20.70;6.70;;;8.90;99.90;;;;;;5070621;28;20519;-61
2023/04/12 02:02:07;;;;;;;22.70;8.23;;;8.90;99.90;;;;;;5053907;28;20939;-61
2023/04/12 02:04:35;;;;;;;21.37;7.10;;;;;;;;;;5060639;28;20486;-61
2023/04/12 02:07:03;;;;;;;32.80;10.93;;;9.00;99.90;;;;;;5065605;28;20489;-61
2023/04/12 02:09:30;;;;;;;26.00;9.43;;;8.90;99.90;;;;;;5051112;28;20487;-62
2023/04/12 02:11:56;;;;;;;38.17;12.87;;;8.80;99.90;;;;;;5037037;28;20482;-61
2023/04/12 02:14:26;;;;;;;31.17;9.27;;;8.90;99.90;;;;;;5056092;28;20710;-61
2023/04/12 02:16:53;;;;;;;39.70;13.03;;;8.90;99.90;;;;;;5051100;28;20471;-61
2023/04/12 02:19:21;;;;;;;40.10;11.50;;;8.90;99.90;;;;;;5046648;28;20869;-62
2023/04/12 02:21:48;;;;;;;17.07;6.67;;;8.90;99.90;;;;;;5070967;28;20490;-61
2023/04/12 02:24:15;;;;;;;18.37;7.33;;;8.90;99.90;;;;;;5071725;28;20834;-61
2023/04/12 02:26:42;;;;;;;18.77;7.07;;;8.90;99.90;;;;;;5036349;28;21063;-61
2023/04/12 02:29:10;;;;;;;25.23;9.20;;;9.00;99.90;;;;;;5057920;28;20484;-61
2023/04/12 02:31:37;;;;;;;17.10;6.53;;;8.90;99.90;;;;;;5044729;28;20494;-62
2023/04/12 02:34:04;;;;;;;17.97;6.47;;;9.00;99.90;;;;;;5066097;28;20494;-61
2023/04/12 02:36:34;;;;;;;16.47;6.50;;;9.00;99.90;;;;;;5063558;28;20959;-61
2023/04/12 02:39:00;;;;;;;36.53;10.63;;;9.00;99.90;;;;;;5043410;28;20865;-61
2023/04/12 02:41:27;;;;;;;11.27;5.17;;;9.00;99.90;;;;;;5038412;28;20471;-61
2023/04/12 02:43:54;;;;;;;41.70;10.83;;;9.00;99.90;;;;;;5045216;28;20979;-61
2023/04/12 02:46:23;;;;;;;28.20;8.67;;;9.00;99.90;;;;;;5044491;28;21398;-61
2023/04/12 02:48:50;;;;;;;40.60;10.47;;;8.90;99.90;;;;;;5061644;28;20997;-61
2023/04/12 02:51:17;;;;;;;19.20;6.70;;;8.80;99.90;;;;;;5062957;28;20606;-61
2023/04/12 02:53:45;;;;;;;17.63;5.60;;;8.80;99.90;;;;;;5049742;28;20495;-61
2023/04/12 02:56:12;;;;;;;17.03;6.10;;;8.70;99.90;;;;;;5060276;28;20486;-61
2023/04/12 02:58:39;;;;;;;31.90;10.07;;;8.70;99.90;;;;;;5046263;28;20467;-61
2023/04/12 03:01:07;;;;;;;20.93;6.50;;;8.70;99.90;;;;;;5058306;28;20491;-61
2023/04/12 03:03:35;;;;;;;15.33;5.37;;;8.70;99.90;;;;;;5076551;28;20920;-61
2023/04/12 03:06:02;;;;;;;27.73;9.03;;;8.70;99.90;;;;;;5050930;28;21105;-61
2023/04/12 03:08:29;;;;;;;25.13;8.23;;;8.80;99.90;;;;;;5049681;28;20487;-61
2023/04/12 03:10:57;;;;;;;14.63;5.90;;;8.80;99.90;;;;;;5038145;28;20541;-61
2023/04/12 03:13:24;;;;;;;17.33;6.37;;;8.70;99.90;;;;;;5055136;28;21071;-61
2023/04/12 03:15:56;;;;;;;38.17;10.30;;;8.80;99.90;;;;;;5062099;28;20482;-61
2023/04/12 03:18:23;;;;;;;24.57;8.03;;;8.80;99.90;;;;;;5041744;28;20599;-61
2023/04/12 03:20:51;;;;;;;32.40;10.47;;;8.80;99.90;;;;;;5050913;28;20494;-61
2023/04/12 03:23:18;;;;;;;33.13;8.60;;;8.80;99.90;;;;;;5045952;28;20551;-61
2023/04/12 03:25:45;;;;;;;25.63;8.20;;;8.80;99.90;;;;;;5058344;28;20871;-61
2023/04/12 03:28:13;;;;;;;19.87;6.40;;;8.70;99.90;;;;;;5060335;28;20478;-61
2023/04/12 03:30:40;;;;;;;22.07;7.10;;;8.70;99.90;;;;;;5055934;28;20478;-61
2023/04/12 03:33:06;;;;;;;13.33;4.80;;;8.70;99.90;;;;;;5047630;28;20858;-61
2023/04/12 03:35:33;;;;;;;20.77;6.70;;;8.60;99.90;;;;;;5052813;28;20530;-61
2023/04/12 03:38:00;;;;;;;35.70;11.50;;;;;;;;;;5042448;28;20483;-61
2023/04/12 03:40:27;;;;;;;19.33;6.67;;;8.60;99.90;;;;;;5036069;28;20490;-61
2023/04/12 03:42:54;;;;;;;32.30;10.73;;;8.50;99.90;;;;;;5058413;28;20849;-62
2023/04/12 03:45:22;;;;;;;20.10;7.33;;;8.50;99.90;;;;;;5074189;28;20489;-61
2023/04/12 03:47:49;;;;;;;20.63;6.73;;;8.50;99.90;;;;;;5072341;28;20477;-62
2023/04/12 03:50:16;;;;;;;17.43;6.60;;;8.50;99.90;;;;;;5065938;28;20475;-61
2023/04/12 03:52:42;;;;;;;18.47;6.83;;;8.50;99.90;;;;;;5057574;28;20531;-61
2023/04/12 03:55:11;;;;;;;15.13;5.63;;;8.40;99.90;;;;;;5042669;28;20491;-61
2023/04/12 03:57:37;;;;;;;19.23;6.30;;;8.40;99.90;;;;;;5061850;28;20550;-61
2023/04/12 04:00:07;;;;;;;16.47;7.30;;;;;;;;;;5075964;28;20475;-61
2023/04/12 04:02:35;;;;;;;14.80;6.53;;;8.40;99.90;;;;;;5071736;28;20479;-61
2023/04/12 04:05:02;;;;;;;23.03;8.90;;;8.40;99.90;;;;;;5061227;28;20989;-61
2023/04/12 04:07:30;;;;;;;17.43;7.77;;;8.50;99.90;;;;;;5073288;28;20513;-61
2023/04/12 04:09:57;;;;;;;27.07;10.83;;;8.60;99.90;;;;;;5064577;28;21246;-62
2023/04/12 04:12:24;;;;;;;12.97;6.60;;;8.60;99.90;;;;;;5024728;28;20815;-62
2023/04/12 04:14:50;;;;;;;23.13;7.97;;;8.50;99.90;;;;;;5072580;28;21116;-62
2023/04/12 04:17:17;;;;;;;15.10;5.67;;;8.60;99.90;;;;;;5057832;28;20810;-62
2023/04/12 04:19:45;;;;;;;13.43;7.57;;;8.50;99.90;;;;;;5073336;28;20491;-62
2023/04/12 04:22:12;;;;;;;15.63;6.53;;;8.60;99.90;;;;;;5057951;28;20895;-62
2023/04/12 04:24:39;;;;;;;17.13;6.50;;;8.50;99.90;;;;;;5048618;28;20483;-62
2023/04/12 04:27:06;;;;;;;13.90;7.07;;;8.70;99.90;;;;;;5061439;28;20478;-62
2023/04/12 04:29:32;;;;;;;18.60;8.10;;;8.70;99.90;;;;;;5056795;28;20555;-62
2023/04/12 04:31:59;;;;;;;23.10;11.43;;;8.60;99.90;;;;;;5054525;28;21004;-62
2023/04/12 04:34:26;;;;;;;7.37;4.70;;;8.80;99.90;;;;;;5072870;28;20493;-62
2023/04/12 04:36:54;;;;;;;17.70;8.47;;;8.80;99.90;;;;;;5067963;28;20864;-62
2023/04/12 04:39:21;;;;;;;13.70;6.60;;;8.70;99.90;;;;;;5065610;28;20878;-62
2023/04/12 04:41:53;;;;;;;14.30;6.67;;;8.90;99.90;;;;;;5065227;28;20490;-62
2023/04/12 04:44:20;;;;;;;13.93;6.50;;;8.90;99.90;;;;;;5064761;28;20466;-62
2023/04/12 04:46:47;;;;;;;22.43;10.27;;;9.00;99.90;;;;;;5068384;28;20474;-61
2023/04/12 04:49:14;;;;;;;17.13;9.13;;;9.00;99.90;;;;;;5065722;28;20510;-62
2023/04/12 04:51:41;;;;;;;22.83;6.80;;;9.00;99.90;;;;;;5080435;28;20487;-62
2023/04/12 04:54:10;;;;;;;11.17;6.30;;;9.00;99.90;;;;;;5069806;28;20497;-61
2023/04/12 04:56:36;;;;;;;12.90;6.90;;;9.20;99.90;;;;;;5059528;28;20546;-61
2023/04/12 04:59:03;;;;;;;19.67;8.83;;;9.20;99.90;;;;;;5055675;28;20478;-61
2023/04/12 05:01:30;;;;;;;12.33;7.00;;;9.20;99.90;;;;;;5033073;28;20507;-62
2023/04/12 05:03:57;;;;;;;15.80;8.13;;;9.20;99.90;;;;;;5062212;28;20486;-62
2023/04/12 05:06:24;;;;;;;16.40;7.77;;;9.20;99.90;;;;;;5065774;28;20865;-62
2023/04/12 05:08:52;;;;;;;22.57;10.47;;;9.20;99.90;;;;;;5071355;28;20486;-61
2023/04/12 05:11:20;;;;;;;12.97;6.63;;;9.20;99.90;;;;;;5065587;28;20626;-61
2023/04/12 05:13:46;;;;;;;14.97;6.27;;;9.30;99.90;;;;;;5041853;28;20490;-61
2023/04/12 05:16:13;;;;;;;16.03;8.50;;;9.30;99.90;;;;;;5061503;28;20470;-62
2023/04/12 05:18:40;;;;;;;17.57;7.17;;;9.40;99.90;;;;;;5065989;28;20988;-62
2023/04/12 05:21:07;;;;;;;13.20;5.83;;;9.40;99.90;;;;;;5059287;28;20501;-61
2023/04/12 05:23:36;;;;;;;14.27;7.50;;;9.40;99.90;;;;;;5066573;28;20483;-61
2023/04/12 05:26:02;;;;;;;21.63;9.37;;;9.50;99.90;;;;;;5059587;28;20571;-61
2023/04/12 05:28:30;;;;;;;13.80;5.40;;;9.40;99.90;;;;;;5059150;28;20463;-62
2023/04/12 05:30:57;;;;;;;20.67;10.23;;;9.50;99.90;;;;;;5069466;28;21147;-61
2023/04/12 05:33:24;;;;;;;13.10;7.03;;;9.50;99.90;;;;;;5073495;28;20486;-61
2023/04/12 05:35:50;;;;;;;24.70;10.23;;;9.50;99.90;;;;;;5073974;28;20911;-61
2023/04/12 05:38:17;;;;;;;15.47;7.83;;;9.50;99.90;;;;;;5078663;28;20479;-62
2023/04/12 05:40:44;;;;;;;15.30;7.43;;;9.40;99.90;;;;;;5077286;28;20888;-61
2023/04/12 05:43:11;;;;;;;11.10;5.17;;;9.50;99.90;;;;;;5057507;28;20481;-61
2023/04/12 05:45:39;;;;;;;21.53;9.97;;;9.50;99.90;;;;;;5051752;28;20493;-62
2023/04/12 05:48:06;;;;;;;13.93;7.27;;;9.50;99.90;;;;;;5072938;28;20467;-61
2023/04/12 05:50:33;;;;;;;21.10;7.47;;;9.50;99.90;;;;;;5068030;28;20474;-61
2023/04/12 05:53:01;;;;;;;17.43;10.30;;;9.50;99.90;;;;;;5073264;28;20474;-62
2023/04/12 05:55:27;;;;;;;14.87;8.57;;;9.50;99.90;;;;;;5045980;28;20564;-62
2023/04/12 05:57:54;;;;;;;15.90;6.80;;;9.50;99.90;;;;;;5069300;28;20475;-62
2023/04/12 06:00:22;;;;;;;13.40;7.33;;;9.50;99.90;;;;;;5078119;28;20821;-62
2023/04/12 06:02:51;;;;;;;16.07;7.67;;;9.50;99.90;;;;;;5080067;28;20478;-61
2023/04/12 06:05:18;;;;;;;23.40;8.37;;;9.50;99.90;;;;;;5060726;28;20483;-61
2023/04/12 06:07:45;;;;;;;18.07;8.33;;;9.60;99.90;;;;;;5065456;28;20490;-61
2023/04/12 06:10:14;;;;;;;12.63;7.27;;;9.70;99.90;;;;;;5078251;28;20489;-62
2023/04/12 06:12:41;;;;;;;16.83;6.30;;;9.70;99.90;;;;;;5067086;28;20489;-61
2023/04/12 06:15:13;;;;;;;15.83;7.90;;;9.60;99.90;;;;;;5065396;28;20459;-62
2023/04/12 06:17:40;;;;;;;19.17;8.43;;;9.70;99.90;;;;;;5062876;28;20487;-62
2023/04/12 06:20:09;;;;;;;16.20;8.13;;;9.70;99.90;;;;;;5063091;28;20474;-61
2023/04/12 06:22:36;;;;;;;11.77;7.27;;;9.70;99.90;;;;;;5055628;28;20586;-61
2023/04/12 06:25:03;;;;;;;21.50;9.50;;;9.80;99.90;;;;;;5074121;28;20486;-62
2023/04/12 06:27:30;;;;;;;16.40;8.60;;;9.80;99.90;;;;;;5065963;28;20561;-63
2023/04/12 06:29:57;;;;;;;15.57;8.17;;;10.10;99.90;;;;;;5057796;28;20530;-62
2023/04/12 06:32:24;;;;;;;20.23;6.77;;;9.80;99.90;;;;;;5056612;28;20581;-62
2023/04/12 06:34:51;;;;;;;22.07;8.97;;;9.80;99.90;;;;;;5075129;28;20485;-62
2023/04/12 06:37:19;;;;;;;18.90;9.90;;;9.80;99.90;;;;;;5061805;28;20512;-63
2023/04/12 06:39:45;;;;;;;10.80;5.87;;;9.70;99.90;;;;;;5056435;28;20490;-63
2023/04/12 06:42:13;;;;;;;20.10;7.93;;;9.70;99.90;;;;;;5059238;28;20510;-62
2023/04/12 06:44:39;;;;;;;18.80;7.70;;;9.70;99.90;;;;;;5078341;28;20892;-61
2023/04/12 06:47:06;;;;;;;19.60;7.03;;;9.80;99.90;;;;;;5073319;28;20497;-62
2023/04/12 06:49:33;;;;;;;23.43;8.50;;;9.80;99.90;;;;;;5056984;28;20483;-62
2023/04/12 06:51:59;;;;;;;22.13;9.40;;;9.70;99.90;;;;;;5049269;28;20486;-61
2023/04/12 06:54:28;;;;;;;23.20;8.90;;;9.80;99.90;;;;;;5072520;28;20474;-63
2023/04/12 06:56:55;;;;;;;24.07;11.20;;;9.70;99.90;;;;;;5061887;28;20489;-62
2023/04/12 06:59:21;;;;;;;20.53;8.90;;;9.70;99.90;;;;;;5061275;28;20917;-61
2023/04/12 07:01:48;;;;;;;23.37;9.33;;;9.70;99.90;;;;;;5056883;28;20487;-61
2023/04/12 07:04:15;;;;;;;14.00;6.20;;;9.80;99.90;;;;;;5071007;28;20485;-62
2023/04/12 07:06:42;;;;;;;17.23;8.77;;;9.80;99.90;;;;;;5076093;28;20493;-61
2023/04/12 07:09:09;;;;;;;18.97;6.80;;;9.80;99.90;;;;;;5078009;28;20574;-61
2023/04/12 07:11:37;;;;;;;23.00;10.37;;;9.80;99.90;;;;;;5066673;28;20486;-62
2023/04/12 07:14:04;;;;;;;27.40;9.93;;;9.90;99.90;;;;;;5066539;28;20470;-62
2023/04/12 07:16:31;;;;;;;21.00;7.83;;;10.00;99.90;;;;;;5052402;28;20486;-61
2023/04/12 07:18:58;;;;;;;25.83;9.43;;;10.10;99.90;;;;;;5054992;28;20508;-61
2023/04/12 07:21:26;;;;;;;25.60;9.67;;;10.20;99.90;;;;;;5076403;28;20486;-61
2023/04/12 07:23:53;;;;;;;21.97;7.47;;;10.20;99.90;;;;;;5081050;28;20578;-62
2023/04/12 07:26:20;;;;;;;15.33;6.93;;;10.20;99.90;;;;;;5067421;28;20497;-62
2023/04/12 07:28:48;;;;;;;25.60;7.77;;;10.30;99.90;;;;;;5076700;28;21392;-62
2023/04/12 07:31:15;;;;;;;21.83;5.73;;;10.40;99.90;;;;;;5057507;28;20475;-62
2023/04/12 07:33:42;;;;;;;14.03;6.80;;;10.40;99.90;;;;;;5059938;28;20485;-62
2023/04/12 07:36:09;;;;;;;21.43;8.67;;;10.50;99.90;;;;;;5072742;28;20473;-62
2023/04/12 07:38:36;;;;;;;30.90;7.60;;;10.50;99.90;;;;;;5065473;28;20517;-63
2023/04/12 07:41:02;;;;;;;29.60;12.37;;;10.50;99.90;;;;;;5066765;28;20475;-63
2023/04/12 07:43:29;;;;;;;24.03;10.10;;;10.60;99.90;;;;;;5075341;28;20475;-63
2023/04/12 07:45:57;;;;;;;17.83;9.37;;;10.60;99.90;;;;;;5063411;28;20485;-62
2023/04/12 07:48:24;;;;;;;13.57;6.00;;;10.80;99.90;;;;;;5078123;28;20479;-63
2023/04/12 07:50:51;;;;;;;25.93;9.43;;;10.80;99.90;;;;;;5074126;28;20858;-63
2023/04/12 07:53:19;;;;;;;32.53;9.50;;;10.90;99.90;;;;;;5071975;28;20494;-62
2023/04/12 07:55:46;;;;;;;20.60;8.67;;;10.90;99.90;;;;;;5074750;28;20491;-62
2023/04/12 07:58:13;;;;;;;19.20;6.80;;;10.80;99.90;;;;;;5090575;28;20869;-61
2023/04/12 08:00:40;;;;;;;18.80;7.77;;;10.90;99.90;;;;;;5088970;28;20481;-61
2023/04/12 08:03:08;;;;;;;19.60;8.10;;;10.70;99.90;;;;;;5083772;28;20474;-61
2023/04/12 08:05:35;;;;;;;23.30;9.13;;;10.80;99.90;;;;;;5099521;28;20470;-61
2023/04/12 08:08:01;;;;;;;25.40;9.70;;;10.90;99.90;;;;;;5095695;28;20470;-61
2023/04/12 08:10:29;;;;;;;21.70;7.77;;;11.00;99.90;;;;;;5082738;28;20479;-62
2023/04/12 08:12:56;;;;;;;29.43;10.70;;;13.80;99.90;;;;;;5075907;28;21169;-61
2023/04/12 08:15:23;;;;;;;27.73;9.00;;;10.90;99.90;;;;;;5076655;28;20486;-62
2023/04/12 08:17:50;;;;;;;27.70;9.57;;;10.90;99.90;;;;;;5087200;28;21004;-61
2023/04/12 08:20:18;;;;;;;22.43;9.60;;;11.00;99.90;;;;;;5074656;28;20489;-61
2023/04/12 08:22:45;;;;;;;32.57;7.70;;;11.10;99.90;;;;;;5058288;28;20486;-61
2023/04/12 08:25:13;;;;;;;16.93;7.97;;;11.10;99.90;;;;;;5085724;28;20478;-62
2023/04/12 08:27:42;;;;;;;24.03;8.07;;;11.20;99.90;;;;;;5058637;28;20466;-62
2023/04/12 08:30:10;;;;;;;25.40;9.30;;;11.20;99.90;;;;;;5086410;28;20492;-62
2023/04/12 08:32:37;;;;;;;18.47;7.00;;;11.20;99.90;;;;;;5066331;28;21214;-62
2023/04/12 08:35:04;;;;;;;19.33;9.43;;;11.20;99.90;;;;;;5089369;28;20962;-61
2023/04/12 08:37:32;;;;;;;25.63;7.00;;;11.30;99.90;;;;;;5096033;28;20482;-62
2023/04/12 08:40:00;;;;;;;26.20;10.40;;;11.30;99.90;;;;;;5094517;28;20470;-62
2023/04/12 08:42:27;;;;;;;19.73;6.17;;;11.30;99.90;;;;;;5077208;28;20505;-61
2023/04/12 08:44:53;;;;;;;25.07;9.80;;;11.40;99.90;;;;;;5095152;28;20484;-62
2023/04/12 08:47:21;;;;;;;20.57;8.50;;;11.40;99.90;;;;;;5095096;28;20949;-62
2023/04/12 08:49:48;;;;;;;21.20;8.97;;;11.40;99.90;;;;;;5045766;28;20481;-61
2023/04/12 08:52:15;;;;;;;25.40;8.43;;;11.50;99.90;;;;;;5078312;28;20478;-62
2023/04/12 08:54:43;;;;;;;19.37;7.00;;;11.50;99.90;;;;;;5078991;28;21407;-62
2023/04/12 08:57:12;;;;;;;20.33;7.50;;;11.50;99.90;;;;;;5070851;28;21184;-62
2023/04/12 08:59:41;;;;;;;15.80;5.93;;;11.50;99.90;;;;;;5076345;28;20864;-62
2023/04/12 09:02:08;;;;;;;16.37;6.73;;;11.60;99.90;;;;;;5075379;28;20478;-62
2023/04/12 09:04:35;;;;;;;16.93;6.80;;;;;;;;;;5019462;28;20487;-62
2023/04/12 09:07:04;;;;;;;41.63;11.80;;;11.60;99.90;;;;;;5071616;28;20481;-62
2023/04/12 09:09:41;;;;;;;21.50;7.60;;;11.70;99.90;;;;;;5072550;28;20582;-62
2023/04/12 09:12:10;;;;;;;26.57;8.87;;;11.60;99.90;;;;;;5072599;28;20823;-61
2023/04/12 09:14:38;;;;;;;22.07;7.73;;;11.60;99.90;;;;;;5070241;28;20481;-61
2023/04/12 09:17:05;;;;;;;27.03;10.13;;;11.60;99.90;;;;;;5048268;28;20812;-62
2023/04/12 09:19:33;;;;;;;22.77;6.90;;;11.50;99.90;;;;;;5072764;28;20527;-62
2023/04/12 09:22:00;;;;;;;47.63;15.40;;;11.60;99.90;;;;;;5046376;28;20474;-62
2023/04/12 09:24:27;;;;;;;24.70;8.13;;;11.60;99.90;;;;;;5060727;28;20491;-62
2023/04/12 09:27:02;;;;;;;45.17;11.23;;;11.70;99.90;;;;;;5065877;28;20482;-61
2023/04/12 09:29:31;;;;;;;27.07;8.80;;;11.70;99.90;;;;;;5051478;28;20888;-62
2023/04/12 09:32:02;;;;;;;37.27;11.53;;;11.70;99.90;;;;;;5063269;28;20521;-62
2023/04/12 09:34:29;;;;;;;21.53;7.50;;;11.70;99.90;;;;;;5063905;28;20486;-62
2023/04/12 09:36:55;;;;;;;33.33;9.37;;;11.70;99.90;;;;;;5052405;28;20478;-63
2023/04/12 09:39:31;;;;;;;23.60;8.20;;;11.60;99.90;;;;;;5060613;28;20671;-62
2023/04/12 09:42:05;;;;;;;48.37;12.13;;;11.60;99.90;;;;;;5069059;28;20493;-61
2023/04/12 09:44:34;;;;;;;28.73;9.03;;;11.60;99.90;;;;;;5062745;28;20914;-62
2023/04/12 09:47:01;;;;;;;42.87;12.63;;;11.70;99.90;;;;;;5057954;28;20579;-61
2023/04/12 09:49:38;;;;;;;13.27;5.50;;;11.60;99.90;;;;;;5064137;28;20897;-62
2023/04/12 09:52:06;;;;;;;21.80;8.00;;;11.80;99.90;;;;;;5071780;28;20920;-62
2023/04/12 09:54:39;;;;;;;19.73;7.07;;;11.80;99.90;;;;;;5059271;28;20510;-62
2023/04/12 09:57:07;;;;;;;26.70;8.40;;;11.90;99.90;;;;;;5067326;28;20501;-62
2023/04/12 09:59:38;;;;;;;19.13;7.30;;;12.00;99.90;;;;;;5081474;28;20576;-62
2023/04/12 10:02:11;;;;;;;18.03;6.40;;;12.10;99.90;;;;;;5043468;28;20617;-62
2023/04/12 10:04:40;;;;;;;22.00;8.53;;;12.10;99.90;;;;;;5055253;28;20595;-62
2023/04/12 10:07:07;;;;;;;11.47;5.30;;;12.20;99.90;;;;;;5047732;28;21080;-62
2023/04/12 10:09:35;;;;;;;14.73;5.73;;;12.20;99.90;;;;;;5075563;28;20664;-62
2023/04/12 10:12:03;;;;;;;20.33;6.87;;;12.20;99.90;;;;;;5075811;28;20511;-62
2023/04/12 10:14:32;;;;;;;24.87;7.57;;;12.10;99.90;;;;;;5056939;28;20490;-62
2023/04/12 10:17:03;;;;;;;42.67;11.33;;;12.10;99.90;;;;;;5049240;28;20486;-62
2023/04/12 10:19:32;;;;;;;19.40;6.07;;;12.00;99.90;;;;;;5073178;28;20482;-62
2023/04/12 10:22:00;;;;;;;52.50;11.97;;;11.90;99.90;;;;;;5075425;28;20502;-61
2023/04/12 10:24:28;;;;;;;39.50;10.03;;;11.90;99.90;;;;;;5074611;28;20486;-62
2023/04/12 10:26:59;;;;;;;56.77;15.77;;;11.90;99.90;;;;;;5080426;28;20482;-62
2023/04/12 10:29:27;;;;;;;27.63;7.17;;;11.90;99.90;;;;;;5084179;28;20579;-62
2023/04/12 10:31:54;;;;;;;31.57;7.73;;;11.80;99.90;;;;;;5081150;28;20478;-62
2023/04/12 10:34:29;;;;;;;19.63;7.63;;;11.90;99.90;;;;;;5073048;28;20578;-62
2023/04/12 10:36:58;;;;;;;26.83;9.13;;;11.80;99.90;;;;;;5069297;28;20477;-61
2023/04/12 10:39:39;;;;;;;12.27;6.23;;;11.80;99.90;;;;;;5071275;28;20477;-62
2023/04/12 10:42:25;;;;;;;23.57;9.70;;;11.80;99.90;;;;;;5068259;28;21048;-62
2023/04/12 10:44:53;;;;;;;25.13;9.10;;;12.00;99.90;;;;;;5073080;28;20487;-62
2023/04/12 10:47:55;;;;;;;19.53;7.83;;;12.20;99.90;;;;;;5060062;28;20478;-62
2023/04/12 10:50:26;;;;;;;12.67;6.83;;;12.20;99.90;;;;;;5073373;28;21024;-61
2023/04/12 10:53:24;;;;;;;18.97;6.27;;;12.10;99.90;;;;;;5064959;28;20497;-62
2023/04/12 10:55:51;;;;;;;14.83;7.80;;;12.20;99.90;;;;;;5076842;28;20478;-62
2023/04/12 10:58:56;;;;;;;13.63;5.67;;;12.20;99.90;;;;;;5079928;28;20482;-61
2023/04/12 11:01:22;;;;;;;11.80;5.90;;;12.00;99.90;;;;;;5065578;28;20482;-62
2023/04/12 11:04:12;;;;;;;10.93;5.93;;;12.10;99.90;;;;;;5070387;28;20684;-61
2023/04/12 11:06:57;;;;;;;24.60;5.77;;;12.00;99.90;;;;;;5073731;28;20545;-62
2023/04/12 11:09:26;;;;;;;9.97;5.80;;;12.10;99.90;;;;;;5072433;28;20478;-62
2023/04/12 11:12:10;;;;;;;26.80;9.77;;;12.20;99.90;;;;;;5081416;28;21025;-62
2023/04/12 11:14:42;;;;;;;14.10;7.50;;;12.30;99.90;;;;;;5041394;28;20625;-62
2023/04/12 11:17:22;;;;;;;12.73;6.17;;;12.50;99.90;;;;;;5067058;28;20489;-62
2023/04/12 11:19:54;;;;;;;14.30;6.23;;;12.60;99.90;;;;;;5082720;28;20527;-62
2023/04/12 11:22:24;;;;;;;15.13;5.10;;;12.90;99.90;;;;;;5072316;28;20494;-62
2023/04/12 11:24:52;;;;;;;16.17;8.67;;;12.80;99.90;;;;;;5073493;28;20481;-62
2023/04/12 11:27:20;;;;;;;10.20;5.00;;;13.00;99.90;;;;;;5069877;28;20486;-62
2023/04/12 11:29:49;;;;;;;10.00;4.80;;;12.80;99.90;;;;;;5076500;28;20490;-62
2023/04/12 11:32:16;;;;;;;12.00;5.67;;;13.00;99.90;;;;;;5063005;28;20545;-62
2023/04/12 11:34:44;;;;;;;6.13;4.37;;;;;;;;;;5081870;28;20817;-62
2023/04/12 11:37:11;;;;;;;8.43;5.33;;;13.00;99.90;;;;;;5078659;28;20839;-62
2023/04/12 11:39:42;;;;;;;9.00;5.33;;;13.10;99.90;;;;;;5074101;28;20589;-62
2023/04/12 11:42:14;;;;;;;12.60;6.43;;;13.00;99.90;;;;;;5075086;28;20989;-62
2023/04/12 11:44:42;;;;;;;9.77;5.13;;;13.00;99.90;;;;;;5077876;28;20575;-62
2023/04/12 11:47:15;;;;;;;7.40;5.00;;;13.00;99.90;;;;;;5086439;28;21129;-62
2023/04/12 11:49:46;;;;;;;11.57;7.73;;;13.10;99.90;;;;;;5052981;28;20467;-62
2023/04/12 11:52:15;;;;;;;6.13;4.30;;;13.40;99.90;;;;;;5058601;28;20518;-62
2023/04/12 11:54:44;;;;;;;11.53;7.63;;;13.50;99.90;;;;;;5059858;28;20824;-62
2023/04/12 11:57:15;;;;;;;27.17;6.77;;;13.30;99.90;;;;;;5068595;28;20510;-62
2023/04/12 11:59:44;;;;;;;12.53;6.87;;;13.30;99.90;;;;;;5069882;28;20485;-63
2023/04/12 12:02:11;;;;;;;9.93;5.33;;;13.10;99.90;;;;;;5078488;28;20486;-62
2023/04/12 12:04:39;;;;;;;14.53;7.03;;;13.00;99.90;;;;;;5090289;28;20478;-62
2023/04/12 12:07:06;;;;;;;6.33;4.73;;;12.90;99.90;;;;;;5082864;28;20589;-62
2023/04/12 12:09:34;;;;;;;12.07;4.97;;;13.00;99.90;;;;;;5075859;28;20497;-62
2023/04/12 12:12:02;;;;;;;12.13;9.87;;;13.10;99.90;;;;;;5081236;28;20557;-62
2023/04/12 12:14:33;;;;;;;6.33;5.17;;;13.30;99.90;;;;;;5073450;28;20507;-62
2023/04/12 12:16:59;;;;;;;10.90;4.57;;;13.30;99.90;;;;;;5044818;28;20477;-61
2023/04/12 12:19:30;;;;;;;7.37;4.70;;;13.30;99.90;;;;;;5087585;28;20486;-63
2023/04/12 12:22:14;;;;;;;14.00;7.63;;;13.30;99.90;;;;;;5064366;28;20497;-62
2023/04/12 12:24:46;;;;;;;15.63;6.33;;;13.20;99.90;;;;;;5062664;28;20795;-62
2023/04/12 12:27:18;;;;;;;4.77;3.10;;;13.30;99.90;;;;;;5057037;28;20568;-62
2023/04/12 12:29:49;;;;;;;9.27;5.20;;;13.10;99.90;;;;;;5072968;28;20840;-62
2023/04/12 12:32:18;;;;;;;8.30;5.10;;;13.10;99.90;;;;;;5060399;28;20470;-62
2023/04/12 12:34:50;;;;;;;5.07;3.43;;;12.90;99.90;;;;;;5069890;28;20500;-62
2023/04/12 12:37:21;;;;;;;8.50;5.23;;;12.70;99.90;;;;;;5082680;28;20799;-62
2023/04/12 12:40:10;;;;;;;16.83;7.27;;;12.60;99.90;;;;;;5066151;28;20516;-62
2023/04/12 12:42:45;;;;;;;8.17;4.60;;;12.40;99.90;;;;;;5063636;28;20567;-62
2023/04/12 12:45:12;;;;;;;13.70;3.60;;;12.30;99.90;;;;;;5033738;28;21052;-62
2023/04/12 12:47:46;;;;;;;10.60;5.97;;;12.20;99.90;;;;;;5062025;28;20509;-62
2023/04/12 12:50:15;;;;;;;5.70;3.40;;;12.10;99.90;;;;;;5078848;28;22850;-61
2023/04/12 12:52:42;;;;;;;11.90;4.00;;;11.90;99.90;;;;;;5055403;28;20478;-62